sensor_id;sensor_type;location;lat;lon;timestamp;pressure;altitude;pressure_sealevel;temperature;humidity
77171;BME280;66144;50.020;14.422;2023-04-01T00:00:48;97237.16;;;9.94;74.16
77171;BME280;66144;50.020;14.422;2023-04-01T00:03:13;97232.16;;;9.97;73.43
77171;BME280;66144;50.020;14.422;2023-04-01T00:05:39;97243.44;;;9.93;73.26
77171;BME280;66144;50.020;14.422;2023-04-01T00:08:04;97233.00;;;9.93;72.87
77171;BME280;66144;50.020;14.422;2023-04-01T00:10:30;97232.94;;;9.98;72.68
77171;BME280;66144;50.020;14.422;2023-04-01T00:12:55;97236.59;;;9.97;72.63
77171;BME280;66144;50.020;14.422;2023-04-01T00:15:21;97236.53;;;10.02;72.28
77171;BME280;66144;50.020;14.422;2023-04-01T00:17:46;97234.97;;;10.01;72.52
77171;BME280;66144;50.020;14.422;2023-04-01T00:20:11;97234.69;;;10.02;72.19
77171;BME280;66144;50.020;14.422;2023-04-01T00:22:37;97239.63;;;10.04;71.84
77171;BME280;66144;50.020;14.422;2023-04-01T00:25:04;97237.25;;;10.08;71.39
77171;BME280;66144;50.020;14.422;2023-04-01T00:27:30;97232.25;;;10.11;71.56
77171;BME280;66144;50.020;14.422;2023-04-01T00:29:55;97234.34;;;10.09;71.14
77171;BME280;66144;50.020;14.422;2023-04-01T00:32:21;97226.75;;;10.13;71.44
77171;BME280;66144;50.020;14.422;2023-04-01T00:34:50;97224.09;;;10.18;71.36
77171;BME280;66144;50.020;14.422;2023-04-01T00:37:17;97227.53;;;10.13;71.00
77171;BME280;66144;50.020;14.422;2023-04-01T00:39:42;97229.84;;;10.15;70.93
77171;BME280;66144;50.020;14.422;2023-04-01T00:42:09;97227.59;;;10.08;71.31
77171;BME280;66144;50.020;14.422;2023-04-01T00:44:37;97228.59;;;10.12;70.71
77171;BME280;66144;50.020;14.422;2023-04-01T00:47:03;97221.31;;;10.09;71.17
77171;BME280;66144;50.020;14.422;2023-04-01T00:49:49;97217.09;;;10.13;70.50
77171;BME280;66144;50.020;14.422;2023-04-01T00:52:17;97222.31;;;10.13;71.13
77171;BME280;66144;50.020;14.422;2023-04-01T00:54:46;97209.31;;;10.08;70.74
77171;BME280;66144;50.020;14.422;2023-04-01T00:59:43;97222.88;;;10.10;70.45
77171;BME280;66144;50.020;14.422;2023-04-01T01:02:11;97216.16;;;10.04;70.75
77171;BME280;66144;50.020;14.422;2023-04-01T01:04:38;97224.06;;;9.99;70.72
77171;BME280;66144;50.020;14.422;2023-04-01T01:12:47;97232.44;;;9.96;70.85
77171;BME280;66144;50.020;14.422;2023-04-01T01:15:27;97233.78;;;9.93;70.90
77171;BME280;66144;50.020;14.422;2023-04-01T01:37:15;97220.56;;;9.85;71.25
77171;BME280;66144;50.020;14.422;2023-04-01T01:39:43;97226.56;;;9.85;71.84
77171;BME280;66144;50.020;14.422;2023-04-01T01:42:11;97220.84;;;9.83;71.96
77171;BME280;66144;50.020;14.422;2023-04-01T01:44:39;97224.81;;;9.81;71.72
77171;BME280;66144;50.020;14.422;2023-04-01T01:47:07;97216.41;;;9.84;72.10
77171;BME280;66144;50.020;14.422;2023-04-01T01:49:33;97228.38;;;9.85;71.53
77171;BME280;66144;50.020;14.422;2023-04-01T01:52:00;97220.56;;;9.85;71.81
77171;BME280;66144;50.020;14.422;2023-04-01T01:54:26;97226.00;;;9.88;72.03
77171;BME280;66144;50.020;14.422;2023-04-01T01:56:57;97222.88;;;9.86;71.98
77171;BME280;66144;50.020;14.422;2023-04-01T01:59:27;97221.34;;;9.85;71.69
77171;BME280;66144;50.020;14.422;2023-04-01T02:01:55;97221.84;;;9.87;72.23
77171;BME280;66144;50.020;14.422;2023-04-01T02:04:22;97222.56;;;9.93;71.96
77171;BME280;66144;50.020;14.422;2023-04-01T02:07:02;97219.50;;;9.86;72.11
77171;BME280;66144;50.020;14.422;2023-04-01T02:09:28;97220.78;;;9.88;71.81
77171;BME280;66144;50.020;14.422;2023-04-01T02:12:04;97216.69;;;9.82;72.40
77171;BME280;66144;50.020;14.422;2023-04-01T02:14:43;97221.06;;;9.87;72.79
77171;BME280;66144;50.020;14.422;2023-04-01T02:17:22;97221.78;;;9.92;72.48
77171;BME280;66144;50.020;14.422;2023-04-01T02:20:10;97235.88;;;9.91;71.92
77171;BME280;66144;50.020;14.422;2023-04-01T02:22:38;97234.09;;;9.87;72.51
77171;BME280;66144;50.020;14.422;2023-04-01T02:25:10;97228.38;;;9.85;72.72
77171;BME280;66144;50.020;14.422;2023-04-01T02:27:36;97230.50;;;9.83;72.67
77171;BME280;66144;50.020;14.422;2023-04-01T02:30:03;97231.63;;;9.77;72.82
77171;BME280;66144;50.020;14.422;2023-04-01T02:32:29;97232.63;;;9.81;72.76
77171;BME280;66144;50.020;14.422;2023-04-01T02:34:56;97229.06;;;9.72;73.33
77171;BME280;66144;50.020;14.422;2023-04-01T02:37:22;97236.56;;;9.78;73.44
77171;BME280;66144;50.020;14.422;2023-04-01T02:39:48;97241.59;;;9.69;73.30
77171;BME280;66144;50.020;14.422;2023-04-01T02:42:14;97239.25;;;9.68;73.08
77171;BME280;66144;50.020;14.422;2023-04-01T02:44:39;97239.50;;;9.72;73.31
77171;BME280;66144;50.020;14.422;2023-04-01T02:47:05;97244.66;;;9.77;73.03
77171;BME280;66144;50.020;14.422;2023-04-01T02:49:30;97253.25;;;9.77;72.99
77171;BME280;66144;50.020;14.422;2023-04-01T02:51:56;97247.31;;;9.72;73.03
77171;BME280;66144;50.020;14.422;2023-04-01T02:54:21;97254.59;;;9.75;73.21
77171;BME280;66144;50.020;14.422;2023-04-01T02:56:46;97248.09;;;9.72;73.01
77171;BME280;66144;50.020;14.422;2023-04-01T02:59:12;97257.75;;;9.72;72.78
77171;BME280;66144;50.020;14.422;2023-04-01T03:01:37;97263.47;;;9.74;72.93
77171;BME280;66144;50.020;14.422;2023-04-01T03:04:03;97262.97;;;9.72;73.09
77171;BME280;66144;50.020;14.422;2023-04-01T03:06:28;97262.34;;;9.80;72.71
77171;BME280;66144;50.020;14.422;2023-04-01T03:08:54;97258.47;;;9.77;72.46
77171;BME280;66144;50.020;14.422;2023-04-01T03:11:20;97264.19;;;9.79;72.83
77171;BME280;66144;50.020;14.422;2023-04-01T03:13:46;97264.97;;;9.80;72.00
77171;BME280;66144;50.020;14.422;2023-04-01T03:16:11;97267.50;;;9.85;72.70
77171;BME280;66144;50.020;14.422;2023-04-01T03:18:37;97269.56;;;9.88;72.49
77171;BME280;66144;50.020;14.422;2023-04-01T03:21:15;97263.28;;;9.89;72.87
77171;BME280;66144;50.020;14.422;2023-04-01T03:23:41;97264.38;;;9.83;72.70
77171;BME280;66144;50.020;14.422;2023-04-01T03:26:07;97275.81;;;9.87;72.63
77171;BME280;66144;50.020;14.422;2023-04-01T03:28:33;97273.25;;;9.82;72.76
77171;BME280;66144;50.020;14.422;2023-04-01T03:30:58;97268.03;;;9.82;72.90
77171;BME280;66144;50.020;14.422;2023-04-01T03:33:23;97264.97;;;9.80;72.15
77171;BME280;66144;50.020;14.422;2023-04-01T03:35:49;97267.78;;;9.83;72.48
77171;BME280;66144;50.020;14.422;2023-04-01T03:38:17;97273.22;;;9.87;72.09
77171;BME280;66144;50.020;14.422;2023-04-01T03:40:43;97276.03;;;9.90;71.81
77171;BME280;66144;50.020;14.422;2023-04-01T03:43:08;97273.44;;;9.90;71.91
77171;BME280;66144;50.020;14.422;2023-04-01T03:45:35;97272.66;;;9.90;72.28
77171;BME280;66144;50.020;14.422;2023-04-01T03:48:01;97272.63;;;9.95;72.36
77171;BME280;66144;50.020;14.422;2023-04-01T03:50:26;97276.28;;;9.94;71.94
77171;BME280;66144;50.020;14.422;2023-04-01T03:52:51;97284.59;;;9.96;71.73
77171;BME280;66144;50.020;14.422;2023-04-01T03:55:17;97288.50;;;9.98;71.54
77171;BME280;66144;50.020;14.422;2023-04-01T03:57:43;97289.81;;;9.96;71.35
77171;BME280;66144;50.020;14.422;2023-04-01T04:00:09;97294.31;;;9.90;71.72
77171;BME280;66144;50.020;14.422;2023-04-01T04:02:34;97300.53;;;9.94;71.97
77171;BME280;66144;50.020;14.422;2023-04-01T04:05:01;97297.69;;;9.91;71.74
77171;BME280;66144;50.020;14.422;2023-04-01T04:07:26;97294.56;;;9.89;71.47
77171;BME280;66144;50.020;14.422;2023-04-01T04:09:51;97301.53;;;9.98;71.65
77171;BME280;66144;50.020;14.422;2023-04-01T04:12:17;97296.13;;;9.90;71.63
77171;BME280;66144;50.020;14.422;2023-04-01T04:14:42;97305.00;;;9.89;71.80
77171;BME280;66144;50.020;14.422;2023-04-01T04:17:10;97307.34;;;9.90;72.09
77171;BME280;66144;50.020;14.422;2023-04-01T04:19:41;97305.75;;;9.94;71.81
77171;BME280;66144;50.020;14.422;2023-04-01T04:22:06;97303.97;;;9.90;71.86
77171;BME280;66144;50.020;14.422;2023-04-01T04:24:34;97306.88;;;9.83;71.83
77171;BME280;66144;50.020;14.422;2023-04-01T04:26:59;97306.09;;;9.83;71.81
77171;BME280;66144;50.020;14.422;2023-04-01T04:29:25;97306.88;;;9.83;72.17
77171;BME280;66144;50.020;14.422;2023-04-01T04:31:50;97311.63;;;9.81;72.06
77171;BME280;66144;50.020;14.422;2023-04-01T04:34:15;97316.59;;;9.78;72.17
77171;BME280;66144;50.020;14.422;2023-04-01T04:36:41;97314.50;;;9.80;72.47
77171;BME280;66144;50.020;14.422;2023-04-01T04:39:06;97312.88;;;9.84;72.02
77171;BME280;66144;50.020;14.422;2023-04-01T04:41:32;97309.03;;;9.81;72.37
77171;BME280;66144;50.020;14.422;2023-04-01T04:43:57;97311.94;;;9.75;71.99
77171;BME280;66144;50.020;14.422;2023-04-01T04:46:24;97309.50;;;9.83;72.56
77171;BME280;66144;50.020;14.422;2023-04-01T04:48:50;97312.88;;;9.84;72.22
77171;BME280;66144;50.020;14.422;2023-04-01T04:51:18;97307.72;;;9.79;72.12
77171;BME280;66144;50.020;14.422;2023-04-01T04:53:44;97306.88;;;9.83;72.14
77171;BME280;66144;50.020;14.422;2023-04-01T04:56:09;97315.47;;;9.84;71.86
77171;BME280;66144;50.020;14.422;2023-04-01T04:58:35;97319.09;;;9.88;71.49
77171;BME280;66144;50.020;14.422;2023-04-01T05:01:12;97321.72;;;9.88;72.09
77171;BME280;66144;50.020;14.422;2023-04-01T05:03:38;97318.09;;;9.84;72.26
77171;BME280;66144;50.020;14.422;2023-04-01T05:06:05;97324.34;;;9.83;72.33
77171;BME280;66144;50.020;14.422;2023-04-01T05:08:31;97321.47;;;9.84;72.39
77171;BME280;66144;50.020;14.422;2023-04-01T05:10:57;97322.81;;;9.82;72.27
77171;BME280;66144;50.020;14.422;2023-04-01T05:13:23;97334.50;;;9.84;71.96
77171;BME280;66144;50.020;14.422;2023-04-01T05:15:48;97333.69;;;9.89;72.40
77171;BME280;66144;50.020;14.422;2023-04-01T05:18:13;97333.69;;;9.89;71.94
77171;BME280;66144;50.020;14.422;2023-04-01T05:20:45;97332.09;;;9.93;72.09
77171;BME280;66144;50.020;14.422;2023-04-01T05:23:10;97331.09;;;9.89;72.02
77171;BME280;66144;50.020;14.422;2023-04-01T05:25:37;97332.66;;;9.90;72.38
77171;BME280;66144;50.020;14.422;2023-04-01T05:28:03;97331.88;;;9.89;72.03
77171;BME280;66144;50.020;14.422;2023-04-01T05:30:29;97334.78;;;9.83;72.39
77171;BME280;66144;50.020;14.422;2023-04-01T05:32:54;97332.97;;;9.83;71.95
77171;BME280;66144;50.020;14.422;2023-04-01T05:35:19;97333.97;;;9.87;71.71
77171;BME280;66144;50.020;14.422;2023-04-01T05:37:45;97333.16;;;9.92;71.59
77171;BME280;66144;50.020;14.422;2023-04-01T05:40:10;97333.97;;;9.87;72.13
77171;BME280;66144;50.020;14.422;2023-04-01T05:42:36;97335.25;;;9.90;71.80
77171;BME280;66144;50.020;14.422;2023-04-01T05:45:01;97328.47;;;9.89;71.45
77171;BME280;66144;50.020;14.422;2023-04-01T05:47:26;97327.44;;;9.90;71.74
77171;BME280;66144;50.020;14.422;2023-04-01T05:49:52;97334.16;;;9.96;71.47
77171;BME280;66144;50.020;14.422;2023-04-01T05:52:17;97337.53;;;9.96;71.64
77171;BME280;66144;50.020;14.422;2023-04-01T05:54:42;97329.44;;;9.98;71.33
77171;BME280;66144;50.020;14.422;2023-04-01T05:57:08;97332.06;;;9.98;70.99
77171;BME280;66144;50.020;14.422;2023-04-01T05:59:33;97334.31;;;10.04;71.42
77171;BME280;66144;50.020;14.422;2023-04-01T06:02:00;97331.47;;;10.01;70.18
77171;BME280;66144;50.020;14.422;2023-04-01T06:04:28;97341.34;;;10.04;70.73
77171;BME280;66144;50.020;14.422;2023-04-01T06:06:57;97338.16;;;10.12;70.68
77171;BME280;66144;50.020;14.422;2023-04-01T06:09:29;97341.25;;;10.14;69.97
77171;BME280;66144;50.020;14.422;2023-04-01T06:14:36;97342.25;;;10.18;69.63
77171;BME280;66144;50.020;14.422;2023-04-01T06:30:40;97346.53;;;10.57;68.00
77171;BME280;66144;50.020;14.422;2023-04-01T06:35:41;97351.94;;;10.60;67.37
77171;BME280;66144;50.020;14.422;2023-04-01T06:46:23;97350.56;;;11.05;66.90
77171;BME280;66144;50.020;14.422;2023-04-01T06:54:17;97365.91;;;11.12;66.27
77171;BME280;66144;50.020;14.422;2023-04-01T06:56:45;97359.22;;;11.20;67.19
77171;BME280;66144;50.020;14.422;2023-04-01T06:59:17;97359.22;;;11.20;67.27
77171;BME280;66144;50.020;14.422;2023-04-01T07:02:50;97360.22;;;11.24;67.65
77171;BME280;66144;50.020;14.422;2023-04-01T07:04:51;97363.41;;;11.21;67.86
77171;BME280;66144;50.020;14.422;2023-04-01T07:07:31;97363.13;;;11.22;67.35
77171;BME280;66144;50.020;14.422;2023-04-01T07:10:00;97359.22;;;11.20;66.77
77171;BME280;66144;50.020;14.422;2023-04-01T07:15:13;97359.78;;;11.17;66.63
77171;BME280;66144;50.020;14.422;2023-04-01T07:17:43;97362.78;;;11.29;66.33
77171;BME280;66144;50.020;14.422;2023-04-01T07:22:49;97365.72;;;11.41;66.17
77171;BME280;66144;50.020;14.422;2023-04-01T07:27:45;97368.69;;;11.67;65.04
77171;BME280;66144;50.020;14.422;2023-04-01T07:30:22;97375.19;;;12.16;63.51
77171;BME280;66144;50.020;14.422;2023-04-01T07:35:29;97372.09;;;12.55;61.76
77171;BME280;66144;50.020;14.422;2023-04-01T07:38:15;97374.59;;;12.60;62.20
77171;BME280;66144;50.020;14.422;2023-04-01T07:41:08;97369.56;;;12.22;61.51
77171;BME280;66144;50.020;14.422;2023-04-01T07:46:23;97383.56;;;12.31;61.37
77171;BME280;66144;50.020;14.422;2023-04-01T07:49:07;97378.59;;;12.30;61.22
77171;BME280;66144;50.020;14.422;2023-04-01T07:54:26;97391.13;;;12.47;61.93
77171;BME280;66144;50.020;14.422;2023-04-01T07:57:06;97376.84;;;12.39;60.73
77171;BME280;66144;50.020;14.422;2023-04-01T08:21:01;97389.56;;;12.45;59.52
77171;BME280;66144;50.020;14.422;2023-04-01T08:23:37;97408.25;;;12.53;59.97
77171;BME280;66144;50.020;14.422;2023-04-01T08:26:12;97401.19;;;12.67;59.00
77171;BME280;66144;50.020;14.422;2023-04-01T08:29:05;97394.47;;;12.88;59.33
77171;BME280;66144;50.020;14.422;2023-04-01T08:34:10;97402.75;;;13.18;58.40
77171;BME280;66144;50.020;14.422;2023-04-01T08:36:46;97397.16;;;12.97;58.27
77171;BME280;66144;50.020;14.422;2023-04-01T08:39:19;97399.06;;;13.19;57.35
77171;BME280;66144;50.020;14.422;2023-04-01T08:44:37;97400.56;;;12.97;56.65
77171;BME280;66144;50.020;14.422;2023-04-01T08:47:23;97405.28;;;13.09;56.91
77171;BME280;66144;50.020;14.422;2023-04-01T08:55:27;97394.91;;;13.18;56.16
77171;BME280;66144;50.020;14.422;2023-04-01T08:58:06;97401.88;;;13.22;57.72
77171;BME280;66144;50.020;14.422;2023-04-01T09:03:44;97399.56;;;13.07;56.74
77171;BME280;66144;50.020;14.422;2023-04-01T09:06:32;97393.56;;;13.06;56.97
77171;BME280;66144;50.020;14.422;2023-04-01T09:14:58;97401.00;;;13.13;55.75
77171;BME280;66144;50.020;14.422;2023-04-01T09:23:20;97394.38;;;13.29;54.52
77171;BME280;66144;50.020;14.422;2023-04-01T09:26:21;97405.91;;;13.42;56.02
77171;BME280;66144;50.020;14.422;2023-04-01T09:31:30;97404.53;;;13.44;54.31
77171;BME280;66144;50.020;14.422;2023-04-01T09:37:20;97408.22;;;13.43;57.51
77171;BME280;66144;50.020;14.422;2023-04-01T09:43:27;97406.38;;;13.44;55.21
77171;BME280;66144;50.020;14.422;2023-04-01T10:06:01;97413.50;;;13.30;54.01
77171;BME280;66144;50.020;14.422;2023-04-01T10:17:08;97417.66;;;13.31;54.52
77171;BME280;66144;50.020;14.422;2023-04-01T11:13:09;97413.59;;;13.83;52.77
77171;BME280;66144;50.020;14.422;2023-04-01T11:21:21;97414.56;;;13.65;53.76
77171;BME280;66144;50.020;14.422;2023-04-01T11:32:29;97419.84;;;13.51;54.83
77171;BME280;66144;50.020;14.422;2023-04-01T11:40:37;97416.09;;;13.66;53.47
77171;BME280;66144;50.020;14.422;2023-04-01T11:43:16;97415.06;;;13.75;52.97
77171;BME280;66144;50.020;14.422;2023-04-01T11:46:02;97415.28;;;13.88;53.41
77171;BME280;66144;50.020;14.422;2023-04-01T11:48:45;97416.25;;;13.92;53.15
77171;BME280;66144;50.020;14.422;2023-04-01T11:51:20;97413.13;;;13.90;52.72
77171;BME280;66144;50.020;14.422;2023-04-01T11:54:05;97418.28;;;13.95;52.80
77171;BME280;66144;50.020;14.422;2023-04-01T11:56:45;97417.75;;;13.84;52.86
77171;BME280;66144;50.020;14.422;2023-04-01T12:18:46;97415.13;;;15.54;50.15
77171;BME280;66144;50.020;14.422;2023-04-01T12:35:03;97432.44;;;15.21;50.91
77171;BME280;66144;50.020;14.422;2023-04-01T12:46:13;97429.81;;;15.04;51.98
77171;BME280;66144;50.020;14.422;2023-04-01T13:02:34;97421.69;;;14.66;51.51
77171;BME280;66144;50.020;14.422;2023-04-01T13:05:25;97421.72;;;14.74;51.54
77171;BME280;66144;50.020;14.422;2023-04-01T13:08:03;97431.31;;;14.79;52.22
77171;BME280;66144;50.020;14.422;2023-04-01T13:13:46;97431.72;;;14.55;52.29
77171;BME280;66144;50.020;14.422;2023-04-01T13:16:24;97428.72;;;14.48;52.15
77171;BME280;66144;50.020;14.422;2023-04-01T13:19:16;97427.13;;;14.38;52.39
77171;BME280;66144;50.020;14.422;2023-04-01T13:29:54;97422.06;;;14.81;53.32
77171;BME280;66144;50.020;14.422;2023-04-01T13:53:56;97426.09;;;14.96;48.95
77171;BME280;66144;50.020;14.422;2023-04-01T14:05:15;97417.75;;;15.54;49.44
77171;BME280;66144;50.020;14.422;2023-04-01T14:19:31;97419.63;;;15.63;49.46
77171;BME280;66144;50.020;14.422;2023-04-01T14:34:15;97429.81;;;15.12;52.14
77171;BME280;66144;50.020;14.422;2023-04-01T14:39:38;97445.75;;;14.99;51.40
77171;BME280;66144;50.020;14.422;2023-04-01T14:47:50;97458.09;;;14.41;52.32
77171;BME280;66144;50.020;14.422;2023-04-01T14:50:23;97456.53;;;14.40;52.72
77171;BME280;66144;50.020;14.422;2023-04-01T14:53:11;97465.75;;;14.07;53.21
77171;BME280;66144;50.020;14.422;2023-04-01T15:09:07;97451.03;;;14.28;53.67
77171;BME280;66144;50.020;14.422;2023-04-01T15:17:45;97462.19;;;14.03;55.26
77171;BME280;66144;50.020;14.422;2023-04-01T15:25:56;97466.66;;;14.02;56.28
77171;BME280;66144;50.020;14.422;2023-04-01T15:28:57;97466.38;;;14.04;56.80
77171;BME280;66144;50.020;14.422;2023-04-01T15:31:31;97468.38;;;14.07;56.81
77171;BME280;66144;50.020;14.422;2023-04-01T15:48:28;97482.13;;;13.81;57.35
77171;BME280;66144;50.020;14.422;2023-04-01T15:56:41;97490.03;;;13.68;56.93
77171;BME280;66144;50.020;14.422;2023-04-01T16:07:27;97486.66;;;13.54;56.30
77171;BME280;66144;50.020;14.422;2023-04-01T16:10:15;97487.84;;;13.47;56.23
77171;BME280;66144;50.020;14.422;2023-04-01T16:21:19;97499.88;;;13.26;55.71
77171;BME280;66144;50.020;14.422;2023-04-01T16:23:55;97504.03;;;13.27;56.22
77171;BME280;66144;50.020;14.422;2023-04-01T16:26:37;97499.38;;;13.24;56.29
77171;BME280;66144;50.020;14.422;2023-04-01T16:29:08;97510.03;;;13.28;56.42
77171;BME280;66144;50.020;14.422;2023-04-01T16:31:50;97514.50;;;13.13;56.74
77171;BME280;66144;50.020;14.422;2023-04-01T16:34:29;97513.72;;;13.13;56.81
77171;BME280;66144;50.020;14.422;2023-04-01T16:37:05;97518.00;;;12.95;57.50
77171;BME280;66144;50.020;14.422;2023-04-01T16:43:25;97528.50;;;12.68;58.50
77171;BME280;66144;50.020;14.422;2023-04-01T16:45:36;97536.84;;;12.70;59.15
77171;BME280;66144;50.020;14.422;2023-04-01T16:48:12;97538.97;;;12.68;59.57
77171;BME280;66144;50.020;14.422;2023-04-01T16:53:21;97534.19;;;12.56;60.13
77171;BME280;66144;50.020;14.422;2023-04-01T16:55:55;97548.13;;;12.52;60.33
77171;BME280;66144;50.020;14.422;2023-04-01T16:59:06;97547.19;;;12.48;61.24
77171;BME280;66144;50.020;14.422;2023-04-01T17:01:49;97556.16;;;12.41;61.48
77171;BME280;66144;50.020;14.422;2023-04-01T17:04:33;97561.41;;;12.41;61.49
77171;BME280;66144;50.020;14.422;2023-04-01T17:09:53;97573.59;;;12.32;62.35
77171;BME280;66144;50.020;14.422;2023-04-01T17:15:26;97576.81;;;12.29;63.00
77171;BME280;66144;50.020;14.422;2023-04-01T17:18:01;97580.97;;;12.30;63.27
77171;BME280;66144;50.020;14.422;2023-04-01T17:23:23;97585.38;;;12.16;63.82
77171;BME280;66144;50.020;14.422;2023-04-01T17:27:01;97580.69;;;12.13;64.01
77171;BME280;66144;50.020;14.422;2023-04-01T17:40:00;97599.97;;;11.85;65.80
77171;BME280;66144;50.020;14.422;2023-04-01T17:46:03;97613.44;;;11.73;66.22
77171;BME280;66144;50.020;14.422;2023-04-01T17:49:01;97607.66;;;11.76;66.44
77171;BME280;66144;50.020;14.422;2023-04-01T17:52:37;97615.31;;;11.67;67.21
77171;BME280;66144;50.020;14.422;2023-04-01T17:54:46;97619.56;;;11.63;67.42
77171;BME280;66144;50.020;14.422;2023-04-01T18:00:38;97618.72;;;11.68;68.11
77171;BME280;66144;50.020;14.422;2023-04-01T18:13:29;97631.41;;;11.56;68.95
77171;BME280;66144;50.020;14.422;2023-04-01T18:27:01;97655.91;;;11.41;68.63
77171;BME280;66144;50.020;14.422;2023-04-01T18:29:53;97663.22;;;11.39;69.11
77171;BME280;66144;50.020;14.422;2023-04-01T18:32:46;97657.56;;;11.32;68.60
77171;BME280;66144;50.020;14.422;2023-04-01T18:35:14;97659.50;;;11.21;68.60
77171;BME280;66144;50.020;14.422;2023-04-01T18:37:47;97667.63;;;11.20;69.07
77171;BME280;66144;50.020;14.422;2023-04-01T18:40:41;97669.25;;;11.16;69.14
77171;BME280;66144;50.020;14.422;2023-04-01T18:43:30;97673.97;;;11.14;69.08
77171;BME280;66144;50.020;14.422;2023-04-01T18:49:08;97674.25;;;11.12;68.90
77171;BME280;66144;50.020;14.422;2023-04-01T18:54:12;97683.28;;;11.20;69.58
77171;BME280;66144;50.020;14.422;2023-04-01T18:56:43;97692.19;;;11.19;68.98
77171;BME280;66144;50.020;14.422;2023-04-01T18:59:25;97694.81;;;11.19;68.91
77171;BME280;66144;50.020;14.422;2023-04-01T19:07:48;97692.81;;;11.11;69.38
77171;BME280;66144;50.020;14.422;2023-04-01T19:15:41;97694.09;;;11.13;69.68
77171;BME280;66144;50.020;14.422;2023-04-01T19:20:57;97706.19;;;11.04;70.08
77171;BME280;66144;50.020;14.422;2023-04-01T19:26:14;97708.00;;;11.03;70.91
77171;BME280;66144;50.020;14.422;2023-04-01T19:36:57;97711.28;;;10.90;70.99
77171;BME280;66144;50.020;14.422;2023-04-01T19:39:31;97712.28;;;10.94;71.09
77171;BME280;66144;50.020;14.422;2023-04-01T19:42:14;97715.16;;;10.93;71.30
77171;BME280;66144;50.020;14.422;2023-04-01T19:45:07;97714.94;;;10.89;71.72
77171;BME280;66144;50.020;14.422;2023-04-01T19:53:35;97725.09;;;10.91;71.72
77171;BME280;66144;50.020;14.422;2023-04-01T20:01:14;97732.72;;;10.87;72.21
77171;BME280;66144;50.020;14.422;2023-04-01T20:03:48;97724.06;;;10.92;71.70
77171;BME280;66144;50.020;14.422;2023-04-01T20:12:03;97735.63;;;10.81;72.54
77171;BME280;66144;50.020;14.422;2023-04-01T20:14:46;97736.47;;;10.76;72.88
77171;BME280;66144;50.020;14.422;2023-04-01T20:17:33;97741.16;;;10.74;72.48
77171;BME280;66144;50.020;14.422;2023-04-01T20:36:36;97746.47;;;10.59;73.53
77171;BME280;66144;50.020;14.422;2023-04-01T20:42:20;97743.84;;;10.64;73.33
77171;BME280;66144;50.020;14.422;2023-04-01T20:47:45;97749.31;;;10.67;73.34
77171;BME280;66144;50.020;14.422;2023-04-01T20:50:27;97750.63;;;10.65;73.42
77171;BME280;66144;50.020;14.422;2023-04-01T21:01:46;97756.38;;;10.62;73.55
77171;BME280;66144;50.020;14.422;2023-04-01T21:07:28;97751.66;;;10.64;73.37
77171;BME280;66144;50.020;14.422;2023-04-01T21:10:14;97757.69;;;10.59;73.60
77171;BME280;66144;50.020;14.422;2023-04-01T21:27:07;97765.88;;;10.48;73.75
77171;BME280;66144;50.020;14.422;2023-04-01T21:48:44;97787.03;;;10.41;74.47
77171;BME280;66144;50.020;14.422;2023-04-01T22:06:02;97786.03;;;10.37;74.28
77171;BME280;66144;50.020;14.422;2023-04-01T22:08:51;97792.03;;;10.37;74.07
77171;BME280;66144;50.020;14.422;2023-04-01T22:11:20;97794.09;;;10.41;74.88
77171;BME280;66144;50.020;14.422;2023-04-01T22:13:50;97790.47;;;10.36;74.77
77171;BME280;66144;50.020;14.422;2023-04-01T22:17:10;97787.81;;;10.42;74.29
77171;BME280;66144;50.020;14.422;2023-04-01T22:19:19;97794.59;;;10.43;74.45
77171;BME280;66144;50.020;14.422;2023-04-01T22:24:24;97793.03;;;10.47;74.22
77171;BME280;66144;50.020;14.422;2023-04-01T22:27:03;97792.75;;;10.48;74.45
77171;BME280;66144;50.020;14.422;2023-04-01T22:29:37;97795.09;;;10.50;74.10
77171;BME280;66144;50.020;14.422;2023-04-01T22:32:09;97797.72;;;10.50;74.17
77171;BME280;66144;50.020;14.422;2023-04-01T22:34:44;97795.63;;;10.47;74.23
77171;BME280;66144;50.020;14.422;2023-04-01T22:42:45;97807.63;;;10.53;74.29
77171;BME280;66144;50.020;14.422;2023-04-01T22:50:43;97805.00;;;10.53;74.18
77171;BME280;66144;50.020;14.422;2023-04-01T22:55:40;97810.75;;;10.55;74.65
77171;BME280;66144;50.020;14.422;2023-04-01T22:58:21;97813.88;;;10.52;74.46
77171;BME280;66144;50.020;14.422;2023-04-01T23:00:55;97813.63;;;10.48;74.75
77171;BME280;66144;50.020;14.422;2023-04-01T23:03:28;97817.03;;;10.44;74.62
77171;BME280;66144;50.020;14.422;2023-04-01T23:06:00;97809.75;;;10.41;74.88
77171;BME280;66144;50.020;14.422;2023-04-01T23:11:00;97812.09;;;10.42;74.86
77171;BME280;66144;50.020;14.422;2023-04-01T23:13:52;97820.41;;;10.49;74.77
77171;BME280;66144;50.020;14.422;2023-04-01T23:16:31;97818.59;;;10.45;74.94
77171;BME280;66144;50.020;14.422;2023-04-01T23:24:31;97828.25;;;10.49;74.87
77171;BME280;66144;50.020;14.422;2023-04-01T23:27:21;97827.47;;;10.49;75.51
77171;BME280;66144;50.020;14.422;2023-04-01T23:29:49;97840.53;;;10.49;75.37
77171;BME280;66144;50.020;14.422;2023-04-01T23:32:17;97836.88;;;10.50;74.96
77171;BME280;66144;50.020;14.422;2023-04-01T23:34:51;97842.63;;;10.47;75.30
77171;BME280;66144;50.020;14.422;2023-04-01T23:37:18;97848.59;;;10.52;75.29
77171;BME280;66144;50.020;14.422;2023-04-01T23:39:55;97849.91;;;10.55;75.30
77171;BME280;66144;50.020;14.422;2023-04-01T23:42:31;97853.03;;;10.57;76.17
77171;BME280;66144;50.020;14.422;2023-04-01T23:45:02;97846.50;;;10.54;77.02
77171;BME280;66144;50.020;14.422;2023-04-01T23:47:31;97851.72;;;10.54;77.13
77171;BME280;66144;50.020;14.422;2023-04-01T23:50:00;97860.56;;;10.58;76.70
77171;BME280;66144;50.020;14.422;2023-04-01T23:52:34;97857.47;;;10.56;76.65